createdAt,value
2018-09-28T00:01:14.430Z,12.57
2018-09-28T00:03:43.438Z,13.43
2018-09-28T00:06:12.449Z,11.80
2018-09-28T00:08:41.462Z,11.90
2018-09-28T00:11:10.623Z,11.50
2018-09-28T00:13:39.704Z,11.27
2018-09-28T00:16:08.711Z,11.17
2018-09-28T00:18:37.768Z,11.50
2018-09-28T00:21:06.984Z,10.40
2018-09-28T00:23:35.954Z,11.37
2018-09-28T00:26:05.016Z,10.53
2018-09-28T00:28:34.035Z,10.50
2018-09-28T00:31:03.087Z,10.57
2018-09-28T00:33:32.106Z,10.30
2018-09-28T00:36:01.202Z,10.73
2018-09-28T00:38:30.126Z,10.43
2018-09-28T00:40:59.135Z,10.50
2018-09-28T00:43:28.096Z,12.27
2018-09-28T00:45:57.142Z,11.30
2018-09-28T00:48:26.300Z,13.90
2018-09-28T00:50:55.386Z,14.13
2018-09-28T00:53:24.350Z,12.97
2018-09-28T00:55:53.393Z,14.13
2018-09-28T00:58:22.402Z,15.47
2018-09-28T01:00:51.514Z,13.43
2018-09-28T01:03:20.578Z,12.60
2018-09-28T01:05:49.630Z,12.80
2018-09-28T01:08:18.661Z,12.50
2018-09-28T01:10:47.652Z,11.97
2018-09-28T01:13:16.802Z,12.00
2018-09-28T01:15:45.808Z,12.33
2018-09-28T01:18:14.962Z,11.23
2018-09-28T01:20:44.005Z,11.27
2018-09-28T01:23:12.982Z,11.03
2018-09-28T01:25:41.999Z,11.57
2018-09-28T01:28:10.990Z,10.67
2018-09-28T01:30:40.064Z,11.10
2018-09-28T01:33:09.095Z,11.27
2018-09-28T01:35:38.042Z,10.87
2018-09-28T01:38:07.034Z,12.03
2018-09-28T01:40:35.996Z,10.50
2018-09-28T01:43:05.072Z,11.03
2018-09-28T01:45:34.135Z,11.87
2018-09-28T01:48:03.171Z,10.47
2018-09-28T01:50:32.137Z,12.50
2018-09-28T01:53:01.336Z,12.37
2018-09-28T01:55:30.443Z,13.60
2018-09-28T01:57:59.535Z,13.17
2018-09-28T02:00:28.601Z,11.70
2018-09-28T02:02:57.930Z,12.03
2018-09-28T02:05:26.938Z,12.00
2018-09-28T02:07:55.958Z,12.13
2018-09-28T02:10:24.969Z,11.50
2018-09-28T02:12:53.962Z,12.10
2018-09-28T02:15:22.941Z,11.27
2018-09-28T02:17:51.995Z,10.53
2018-09-28T02:20:21.064Z,11.13
2018-09-28T02:22:50.118Z,11.13
2018-09-28T02:25:19.138Z,11.83
2018-09-28T02:27:48.107Z,13.17
2018-09-28T02:30:17.136Z,11.73
2018-09-28T02:32:46.186Z,11.50
2018-09-28T02:35:15.186Z,12.77
2018-09-28T02:37:44.306Z,12.20
2018-09-28T02:40:13.338Z,10.57
2018-09-28T02:42:42.406Z,11.40
2018-09-28T02:45:11.657Z,11.43
2018-09-28T02:47:40.827Z,11.40
2018-09-28T02:50:09.911Z,11.57
2018-09-28T02:52:38.881Z,11.10
2018-09-28T02:55:07.934Z,11.30
2018-09-28T02:57:36.963Z,10.80
2018-09-28T03:00:05.989Z,11.07
2018-09-28T03:02:35.115Z,11.50
2018-09-28T03:05:04.238Z,10.63
2018-09-28T03:07:33.241Z,10.93
2018-09-28T03:10:02.267Z,10.90
2018-09-28T03:12:31.271Z,10.90
2018-09-28T03:15:00.283Z,10.83
2018-09-28T03:17:29.429Z,10.93
2018-09-28T03:19:58.413Z,11.53
2018-09-28T03:22:27.464Z,11.00
2018-09-28T03:24:56.478Z,11.23
2018-09-28T03:27:25.556Z,10.67
2018-09-28T03:29:54.548Z,11.37
2018-09-28T03:32:23.555Z,10.77
2018-09-28T03:34:52.540Z,11.20
2018-09-28T03:37:21.537Z,10.83
2018-09-28T03:39:50.678Z,11.30
2018-09-28T03:42:19.807Z,11.80
2018-09-28T03:44:48.785Z,12.43
2018-09-28T03:47:17.754Z,11.53
2018-09-28T03:49:46.747Z,11.57
2018-09-28T03:52:15.725Z,11.07
2018-09-28T03:54:44.723Z,11.73
2018-09-28T03:57:13.734Z,12.17
2018-09-28T03:59:42.708Z,11.97
2018-09-28T04:02:11.849Z,12.53
2018-09-28T04:04:40.845Z,13.27
2018-09-28T04:07:09.915Z,13.57
2018-09-28T04:09:38.989Z,13.10
2018-09-28T04:12:08.170Z,12.70
2018-09-28T04:14:37.450Z,14.10
2018-09-28T04:17:06.630Z,14.13
2018-09-28T04:19:35.596Z,12.63
2018-09-28T04:22:04.666Z,12.60
2018-09-28T04:24:33.755Z,12.40
2018-09-28T04:27:02.824Z,12.90
2018-09-28T04:29:31.882Z,13.10
2018-09-28T04:32:00.944Z,12.03
2018-09-28T04:34:29.978Z,12.43
2018-09-28T04:36:59.186Z,11.33
2018-09-28T04:39:28.259Z,11.80
2018-09-28T04:41:57.296Z,12.73
2018-09-28T04:44:26.365Z,13.17
2018-09-28T04:46:55.327Z,12.27
2018-09-28T04:49:24.406Z,11.70
2018-09-28T04:51:53.439Z,12.73
2018-09-28T04:54:22.534Z,12.70
2018-09-28T04:56:51.558Z,12.67
2018-09-28T04:59:20.607Z,12.77
2018-09-28T05:01:49.810Z,11.93
2018-09-28T05:04:18.820Z,11.90
2018-09-28T05:06:47.847Z,11.70
2018-09-28T05:09:16.874Z,11.80
2018-09-28T05:11:46.007Z,11.63
2018-09-28T05:14:15.106Z,11.23
2018-09-28T05:16:50.482Z,11.20
2018-09-28T05:19:19.521Z,11.67
2018-09-28T05:21:48.540Z,12.00
2018-09-28T05:24:17.554Z,12.63
2018-09-28T05:26:46.558Z,11.63
2018-09-28T05:29:15.658Z,12.10
2018-09-28T05:31:44.995Z,13.67
2018-09-28T05:34:13.901Z,12.27
2018-09-28T05:36:42.908Z,11.40
2018-09-28T05:39:11.959Z,13.20
2018-09-28T05:41:40.972Z,12.07
2018-09-28T05:44:09.988Z,12.33
2018-09-28T05:46:38.975Z,11.70
2018-09-28T05:49:08.037Z,12.17
2018-09-28T05:51:37.049Z,12.67
2018-09-28T05:54:06.051Z,13.27
2018-09-28T05:56:35.038Z,13.07
2018-09-28T05:59:09.455Z,13.33
2018-09-28T06:01:43.822Z,12.87
2018-09-28T06:04:18.129Z,13.00
2018-09-28T06:06:47.295Z,12.93
2018-09-28T06:09:16.326Z,13.13
2018-09-28T06:11:45.349Z,12.50
2018-09-28T06:14:14.444Z,13.10
2018-09-28T06:16:43.518Z,12.43
2018-09-28T06:19:12.548Z,14.03
2018-09-28T06:21:41.547Z,12.83
2018-09-28T06:24:10.765Z,12.33
2018-09-28T06:26:39.739Z,18.10
2018-09-28T06:29:08.727Z,14.70
2018-09-28T06:31:37.705Z,13.00
2018-09-28T06:34:06.726Z,13.10
2018-09-28T06:36:35.767Z,13.17
2018-09-28T06:39:06.035Z,12.63
2018-09-28T06:41:35.101Z,12.93
2018-09-28T06:44:04.231Z,23.63
2018-09-28T06:46:33.199Z,12.53
2018-09-28T06:49:02.215Z,12.67
2018-09-28T06:51:31.860Z,12.30
2018-09-28T06:54:00.967Z,11.97
2018-09-28T06:56:29.887Z,13.17
2018-09-28T06:58:59.034Z,12.13
2018-09-28T07:01:28.138Z,12.17
2018-09-28T07:03:57.232Z,13.43
2018-09-28T07:06:26.298Z,11.60
2018-09-28T07:08:55.294Z,10.50
2018-09-28T07:11:24.375Z,10.60
2018-09-28T07:13:53.446Z,10.87
2018-09-28T07:16:22.538Z,10.13
2018-09-28T07:18:51.527Z,12.07
2018-09-28T07:21:20.578Z,10.67
2018-09-28T07:23:49.641Z,10.83
2018-09-28T07:26:18.670Z,11.90
2018-09-28T07:28:47.723Z,11.87
2018-09-28T07:31:16.882Z,12.13
2018-09-28T07:33:45.966Z,11.13
2018-09-28T07:36:15.069Z,13.40
2018-09-28T07:38:44.136Z,12.93
2018-09-28T07:41:13.182Z,11.63
2018-09-28T07:43:42.337Z,13.10
2018-09-28T07:46:11.530Z,12.43
2018-09-28T07:48:40.494Z,12.20
2018-09-28T07:51:09.512Z,11.73
2018-09-28T07:53:38.558Z,12.60
2018-09-28T07:56:08.502Z,11.80
2018-09-28T07:58:37.471Z,12.50
2018-09-28T08:01:06.465Z,13.57
2018-09-28T08:03:35.558Z,12.37
2018-09-28T08:06:04.649Z,12.47
2018-09-28T08:08:33.619Z,12.13
2018-09-28T08:11:02.644Z,12.57
2018-09-28T08:13:31.747Z,13.03
2018-09-28T08:16:00.706Z,12.53
2018-09-28T08:18:29.744Z,13.13
2018-09-28T08:20:58.865Z,12.73
2018-09-28T08:23:27.932Z,12.27
2018-09-28T08:25:56.830Z,12.83
2018-09-28T08:28:25.902Z,11.10
2018-09-28T08:30:54.890Z,11.77
2018-09-28T08:33:23.940Z,12.27
2018-09-28T08:35:53.062Z,11.77
2018-09-28T08:38:22.076Z,12.67
2018-09-28T08:40:51.104Z,12.37
2018-09-28T08:43:20.134Z,11.30
2018-09-28T08:45:49.191Z,13.60
2018-09-28T08:48:18.313Z,11.10
2018-09-28T08:50:54.034Z,12.00
2018-09-28T08:53:23.057Z,12.47
2018-09-28T08:55:52.113Z,12.57
2018-09-28T08:58:21.135Z,12.07
2018-09-28T09:00:50.221Z,12.70
2018-09-28T09:03:19.250Z,13.37
2018-09-28T09:05:48.321Z,13.57
2018-09-28T09:08:17.410Z,12.80
2018-09-28T09:10:46.525Z,15.70
2018-09-28T09:13:15.522Z,14.80
2018-09-28T09:15:44.643Z,14.50
2018-09-28T09:18:13.724Z,13.37
2018-09-28T09:20:42.722Z,15.43
2018-09-28T09:23:11.768Z,15.23
2018-09-28T09:25:40.770Z,16.07
2018-09-28T09:28:09.819Z,16.47
2018-09-28T09:30:38.906Z,15.83
2018-09-28T09:33:07.978Z,18.13
2018-09-28T09:35:36.997Z,15.40
2018-09-28T09:38:06.009Z,14.70
2018-09-28T09:40:35.059Z,14.43
2018-09-28T09:43:04.169Z,15.10
2018-09-28T09:45:33.261Z,15.83
2018-09-28T09:48:02.345Z,13.83
2018-09-28T09:50:31.434Z,18.27
2018-09-28T09:55:31.599Z,16.23
2018-09-28T09:58:00.723Z,16.47
2018-09-28T10:00:35.025Z,12.63
2018-09-28T10:03:09.468Z,13.13
2018-09-28T10:05:38.489Z,16.90
2018-09-28T10:08:07.449Z,16.53
2018-09-28T10:10:36.577Z,20.37
2018-09-28T10:13:05.635Z,17.03
2018-09-28T10:15:34.653Z,16.67
2018-09-28T10:18:05.048Z,21.63
2018-09-28T10:20:34.493Z,22.60
2018-09-28T10:23:04.370Z,18.73
2018-09-28T10:25:33.406Z,20.17
2018-09-28T10:28:02.467Z,17.60
2018-09-28T10:30:31.403Z,19.87
2018-09-28T10:33:00.462Z,15.13
2018-09-28T10:35:29.533Z,18.40
2018-09-28T10:37:59.043Z,19.40
2018-09-28T10:40:28.183Z,18.10
2018-09-28T10:42:57.177Z,15.53
2018-09-28T10:45:26.198Z,17.37
2018-09-28T10:47:55.268Z,17.43
2018-09-28T10:50:24.343Z,17.90
2018-09-28T10:52:53.554Z,16.97
2018-09-28T10:55:22.491Z,17.13
2018-09-28T10:57:51.509Z,17.40
2018-09-28T11:00:20.672Z,19.20
2018-09-28T11:02:49.613Z,17.93
2018-09-28T11:05:18.679Z,20.43
2018-09-28T11:07:47.682Z,19.17
2018-09-28T11:10:16.844Z,20.10
2018-09-28T11:12:45.771Z,19.97
2018-09-28T11:17:47.115Z,17.73
2018-09-28T11:20:16.242Z,17.87
2018-09-28T11:22:45.214Z,14.80
2018-09-28T11:25:14.298Z,16.43
2018-09-28T11:27:43.343Z,15.70
2018-09-28T11:30:13.242Z,19.23
2018-09-28T11:32:42.282Z,18.37
2018-09-28T11:35:11.251Z,18.93
2018-09-28T11:37:40.306Z,17.87
2018-09-28T11:40:09.466Z,22.30
2018-09-28T11:42:38.441Z,19.73
2018-09-28T11:45:07.571Z,18.33
2018-09-28T11:47:36.705Z,16.20
2018-09-28T11:50:05.840Z,14.20
2018-09-28T11:52:34.894Z,15.53
2018-09-28T11:55:03.979Z,12.77
2018-09-28T11:57:32.974Z,13.63
2018-09-28T12:00:01.979Z,18.00
2018-09-28T12:02:31.358Z,16.73
2018-09-28T12:05:00.854Z,12.33
2018-09-28T12:07:29.942Z,14.37
2018-09-28T12:09:58.930Z,13.13
2018-09-28T12:12:27.970Z,13.40
2018-09-28T12:14:57.062Z,14.17
2018-09-28T12:17:26.039Z,9.53
2018-09-28T12:19:55.174Z,14.63
2018-09-28T12:22:24.225Z,12.67
2018-09-28T12:24:53.270Z,13.50
2018-09-28T12:27:22.456Z,12.57
2018-09-28T12:29:51.478Z,10.53
2018-09-28T12:32:20.624Z,12.57
2018-09-28T12:34:49.694Z,15.60
2018-09-28T12:37:18.730Z,13.07
2018-09-28T12:39:47.887Z,10.63
2018-09-28T12:42:16.854Z,12.73
2018-09-28T12:44:45.962Z,14.43
2018-09-28T12:47:15.122Z,11.83
2018-09-28T12:49:44.147Z,11.50
2018-09-28T12:52:13.261Z,12.60
2018-09-28T12:54:42.294Z,14.10
2018-09-28T12:57:11.352Z,13.30
2018-09-28T12:59:40.521Z,10.87
2018-09-28T13:02:09.572Z,15.83
2018-09-28T13:04:38.595Z,15.23
2018-09-28T13:07:07.966Z,13.87
2018-09-28T13:09:37.005Z,14.70
2018-09-28T13:12:06.047Z,16.37
2018-09-28T13:14:35.133Z,13.77
2018-09-28T13:17:04.202Z,12.83
2018-09-28T13:19:33.263Z,14.83
2018-09-28T13:22:02.286Z,15.63
2018-09-28T13:24:31.324Z,17.33
2018-09-28T13:27:00.705Z,13.53
2018-09-28T13:29:29.843Z,13.20
2018-09-28T13:31:58.968Z,15.23
2018-09-28T13:34:28.196Z,13.83
2018-09-28T13:36:58.078Z,15.83
2018-09-28T13:39:27.060Z,14.50
2018-09-28T13:41:56.515Z,14.57
2018-09-28T13:44:26.014Z,20.07
2018-09-28T13:46:55.041Z,16.07
2018-09-28T13:49:23.987Z,13.80
2018-09-28T13:51:53.184Z,12.83
2018-09-28T13:54:22.653Z,13.13
2018-09-28T13:56:51.635Z,13.43
2018-09-28T13:59:21.352Z,13.97
2018-09-28T14:01:50.642Z,13.80
2018-09-28T14:04:20.376Z,13.13
2018-09-28T14:06:49.445Z,13.17
2018-09-28T14:09:18.394Z,15.23
2018-09-28T14:11:47.498Z,14.53
2018-09-28T14:14:16.706Z,10.77
2018-09-28T14:16:45.982Z,13.00
2018-09-28T14:19:15.068Z,10.57
2018-09-28T14:21:44.261Z,12.33
2018-09-28T14:24:13.355Z,14.07
2018-09-28T14:29:01.425Z,12.87
2018-09-28T14:31:30.706Z,15.70
2018-09-28T14:34:00.010Z,11.33
2018-09-28T14:36:29.314Z,11.80
2018-09-28T14:38:58.352Z,9.80
2018-09-28T14:41:27.659Z,10.20
2018-09-28T14:43:56.720Z,10.37
2018-09-28T14:46:26.125Z,8.73
2018-09-28T14:48:56.022Z,8.87
2018-09-28T14:51:24.974Z,8.00
2018-09-28T14:53:54.724Z,8.40
2018-09-28T14:56:24.342Z,9.30
2018-09-28T14:58:53.255Z,8.83
2018-09-28T15:01:22.622Z,7.40
2018-09-28T15:03:51.659Z,7.23
2018-09-28T15:06:20.933Z,6.67
2018-09-28T15:08:49.981Z,6.93
2018-09-28T15:11:18.930Z,7.27
2018-09-28T15:13:47.989Z,6.73
2018-09-28T15:16:17.388Z,6.40
2018-09-28T15:18:46.520Z,7.87
2018-09-28T15:21:15.869Z,6.53
2018-09-28T15:23:44.983Z,6.00
2018-09-28T15:26:14.215Z,5.60
2018-09-28T15:28:44.184Z,5.20
2018-09-28T15:31:13.387Z,4.63
2018-09-28T15:33:42.832Z,5.23
2018-09-28T15:36:11.802Z,5.27
2018-09-28T15:38:41.110Z,4.73
2018-09-28T15:41:10.694Z,4.83
2018-09-28T15:43:40.114Z,5.70
2018-09-28T15:46:09.765Z,5.10
2018-09-28T15:48:40.201Z,5.00
2018-09-28T15:51:09.521Z,5.13
2018-09-28T15:53:39.133Z,4.90
2018-09-28T15:56:09.165Z,5.17
2018-09-28T15:58:39.309Z,5.37
2018-09-28T16:01:08.958Z,4.80
2018-09-28T16:03:38.046Z,4.70
2018-09-28T16:06:07.164Z,4.57
2018-09-28T16:08:36.379Z,4.90
2018-09-28T16:11:05.484Z,5.20
2018-09-28T16:13:34.647Z,4.80
2018-09-28T16:16:03.636Z,4.67
2018-09-28T16:18:32.857Z,4.67
2018-09-28T16:21:01.998Z,4.60
2018-09-28T16:23:31.119Z,4.87
2018-09-28T16:26:00.099Z,4.57
2018-09-28T16:28:29.246Z,5.37
2018-09-28T16:30:58.319Z,5.90
2018-09-28T16:33:27.496Z,5.73
2018-09-28T16:35:56.705Z,8.30
2018-09-28T16:38:25.669Z,8.10
2018-09-28T16:40:54.701Z,9.00
2018-09-28T16:43:23.749Z,8.80
2018-09-28T16:45:52.873Z,9.27
2018-09-28T16:48:21.977Z,8.60
2018-09-28T16:50:51.083Z,9.07
2018-09-28T16:53:20.083Z,9.60
2018-09-28T16:55:49.123Z,9.67
2018-09-28T16:58:18.286Z,8.80
2018-09-28T17:00:47.277Z,9.90
2018-09-28T17:03:16.319Z,8.90
2018-09-28T17:05:45.614Z,8.73
2018-09-28T17:08:14.601Z,9.87
2018-09-28T17:10:43.590Z,9.20
2018-09-28T17:13:12.635Z,8.90
2018-09-28T17:15:41.643Z,8.70
2018-09-28T17:18:10.651Z,12.33
2018-09-28T17:20:39.750Z,9.33
2018-09-28T17:23:08.756Z,12.10
2018-09-28T17:25:37.915Z,8.70
2018-09-28T17:28:07.213Z,8.60
2018-09-28T17:30:36.354Z,8.90
2018-09-28T17:33:05.293Z,8.73
2018-09-28T17:35:34.527Z,10.13
2018-09-28T17:38:03.625Z,10.37
2018-09-28T17:40:32.615Z,7.83
2018-09-28T17:43:01.625Z,13.30
2018-09-28T17:45:30.894Z,10.13
2018-09-28T17:48:00.014Z,12.67
2018-09-28T17:50:29.002Z,7.30
2018-09-28T17:52:58.046Z,11.40
2018-09-28T17:55:27.047Z,7.30
2018-09-28T17:57:56.082Z,10.30
2018-09-28T18:00:25.650Z,10.23
2018-09-28T18:02:54.710Z,7.63
2018-09-28T18:05:23.848Z,16.23
2018-09-28T18:07:52.922Z,11.97
2018-09-28T18:10:21.973Z,10.13
2018-09-28T18:12:50.973Z,7.63
2018-09-28T18:15:20.104Z,12.10
2018-09-28T18:17:49.070Z,12.33
2018-09-28T18:20:18.398Z,8.50
2018-09-28T18:22:47.487Z,9.97
2018-09-28T18:25:16.571Z,10.63
2018-09-28T18:27:45.685Z,10.67
2018-09-28T18:30:14.768Z,10.87
2018-09-28T18:32:43.722Z,8.33
2018-09-28T18:35:12.777Z,10.53
2018-09-28T18:37:41.804Z,7.40
2018-09-28T18:40:10.859Z,10.83
2018-09-28T18:42:39.890Z,12.13
2018-09-28T18:45:08.935Z,11.40
2018-09-28T18:47:37.918Z,10.40
2018-09-28T18:50:06.886Z,10.73
2018-09-28T18:52:36.014Z,11.10
2018-09-28T18:55:05.367Z,11.07
2018-09-28T18:57:34.337Z,10.47
2018-09-28T19:00:03.471Z,10.13
2018-09-28T19:02:32.527Z,10.70
2018-09-28T19:05:01.610Z,10.70
2018-09-28T19:07:30.687Z,11.17
2018-09-28T19:09:59.697Z,11.03
2018-09-28T19:12:28.790Z,11.27
2018-09-28T19:14:57.775Z,10.87
2018-09-28T19:17:26.855Z,8.70
2018-09-28T19:19:55.958Z,10.47
2018-09-28T19:22:24.979Z,9.10
2018-09-28T19:24:54.031Z,12.57
2018-09-28T19:27:23.021Z,10.93
2018-09-28T19:29:52.038Z,9.60
2018-09-28T19:32:21.250Z,11.67
2018-09-28T19:34:50.246Z,8.07
2018-09-28T19:37:19.347Z,9.10
2018-09-28T19:39:48.322Z,11.23
2018-09-28T19:42:17.371Z,8.63
2018-09-28T19:44:46.349Z,8.60
2018-09-28T19:47:15.478Z,9.77
2018-09-28T19:49:44.472Z,14.53
2018-09-28T19:52:13.488Z,12.47
2018-09-28T19:54:42.590Z,7.93
2018-09-28T19:57:11.595Z,11.10
2018-09-28T19:59:40.671Z,11.17
2018-09-28T20:02:09.658Z,9.23
2018-09-28T20:04:38.645Z,13.13
2018-09-28T20:07:07.797Z,14.00
2018-09-28T20:09:36.769Z,13.87
2018-09-28T20:12:07.202Z,18.40
2018-09-28T20:14:37.133Z,10.03
2018-09-28T20:17:06.608Z,9.70
2018-09-28T20:19:35.641Z,13.63
2018-09-28T20:22:07.590Z,8.13
2018-09-28T20:24:36.637Z,11.33
2018-09-28T20:27:05.692Z,8.93
2018-09-28T20:29:34.694Z,10.37
2018-09-28T20:32:03.998Z,11.03
2018-09-28T20:34:33.062Z,9.57
2018-09-28T20:37:02.150Z,10.10
2018-09-28T20:39:31.298Z,7.80
2018-09-28T20:42:00.627Z,9.37
2018-09-28T20:44:29.792Z,9.33
2018-09-28T20:46:58.842Z,8.77
2018-09-28T20:49:27.847Z,11.77
2018-09-28T20:51:56.967Z,8.57
2018-09-28T20:54:26.025Z,10.97
2018-09-28T20:56:55.350Z,7.40
2018-09-28T20:59:24.406Z,6.90
2018-09-28T21:01:53.428Z,9.77
2018-09-28T21:04:22.498Z,7.90
2018-09-28T21:06:51.592Z,9.40
2018-09-28T21:09:20.598Z,9.97
2018-09-28T21:11:49.594Z,13.17
2018-09-28T21:14:18.735Z,9.70
2018-09-28T21:16:48.419Z,12.63
2018-09-28T21:19:17.534Z,14.73
2018-09-28T21:21:46.813Z,10.30
2018-09-28T21:24:16.240Z,10.43
2018-09-28T21:26:45.502Z,10.20
2018-09-28T21:29:14.543Z,11.30
2018-09-28T21:31:43.702Z,12.20
2018-09-28T21:34:12.950Z,10.10
2018-09-28T21:36:42.339Z,9.73
2018-09-28T21:39:11.834Z,9.33
2018-09-28T21:41:41.305Z,8.33
2018-09-28T21:44:10.544Z,11.00
2018-09-28T21:46:39.549Z,10.30
2018-09-28T21:49:08.729Z,9.23
2018-09-28T21:51:37.903Z,7.63
2018-09-28T21:54:07.214Z,9.40
2018-09-28T21:56:36.358Z,9.53
2018-09-28T21:59:05.467Z,7.20
2018-09-28T22:01:35.587Z,9.03
2018-09-28T22:04:05.629Z,10.77
2018-09-28T22:06:34.732Z,13.73
2018-09-28T22:09:05.061Z,9.77
2018-09-28T22:11:36.596Z,10.40
2018-09-28T22:14:06.124Z,9.50
2018-09-28T22:16:35.151Z,6.80
2018-09-28T22:19:04.168Z,11.10
2018-09-28T22:21:33.276Z,8.73
2018-09-28T22:24:02.266Z,15.07
2018-09-28T22:26:31.260Z,9.73
2018-09-28T22:29:00.289Z,11.10
2018-09-28T22:31:29.461Z,8.33
2018-09-28T22:33:58.503Z,9.27
2018-09-28T22:36:27.781Z,9.47
2018-09-28T22:38:56.846Z,8.20
2018-09-28T22:41:27.124Z,9.50
2018-09-28T22:43:56.071Z,7.20
2018-09-28T22:46:25.091Z,8.53
2018-09-28T22:48:54.679Z,8.60
2018-09-28T22:51:23.663Z,7.83
2018-09-28T22:53:52.631Z,7.70
2018-09-28T22:56:21.614Z,8.10
2018-09-28T22:58:50.563Z,10.40
2018-09-28T23:01:19.566Z,9.27
2018-09-28T23:03:49.446Z,12.17
2018-09-28T23:06:18.487Z,7.40
2018-09-28T23:08:47.532Z,10.53
2018-09-28T23:11:16.502Z,9.00
2018-09-28T23:13:45.539Z,8.43
2018-09-28T23:16:14.582Z,11.40
2018-09-28T23:18:43.536Z,10.17
2018-09-28T23:21:12.566Z,11.10
2018-09-28T23:23:41.557Z,11.77
2018-09-28T23:26:10.531Z,12.77
2018-09-28T23:28:39.609Z,9.37
2018-09-28T23:31:08.638Z,11.90
2018-09-28T23:33:38.002Z,10.00
2018-09-28T23:36:06.983Z,8.60
2018-09-28T23:38:36.149Z,8.83
2018-09-28T23:41:05.218Z,12.80
2018-09-28T23:43:34.237Z,12.23
2018-09-28T23:46:03.182Z,10.47
2018-09-28T23:48:32.142Z,13.60
2018-09-28T23:51:01.170Z,8.33
2018-09-28T23:53:30.190Z,7.53
2018-09-28T23:55:59.160Z,8.50
2018-09-28T23:58:28.171Z,7.80
